This is the latest recevied weather packets stored in our database for station/object W1CAT. If no packets are shown the sender has not sent any weather packets the latest 10 day(s).
| Time | Temp. | Humidity | Pressure | Rain* | Wind** | Luminosity | Snow |
|---|---|---|---|---|---|---|---|
| 1777804630 | -1.11° C | 83% | - | 0 mm | - | - | - |
| 1777804328 | -0.56° C | 81% | - | 0 mm | - | - | - |
| 1777804024 | -0.56° C | 79% | - | 0 mm | - | - | - |
| 1777803721 | 0° C | 78% | - | 0 mm | - | - | - |
| 1777803416 | 0° C | 78% | - | 0 mm | - | - | - |
| 1777803115 | 0° C | 78% | - | 0 mm | - | - | - |
| 1777802811 | 0° C | 78% | - | 0 mm | - | - | - |
| 1777802509 | 0° C | 75% | - | 0 mm | - | - | - |
| 1777802207 | 0.56° C | 76% | - | 0 mm | - | - | - |
| 1777801905 | 0.56° C | 74% | - | 0 mm | - | - | - |
| 1777801602 | 0.56° C | 73% | - | 0 mm | - | - | - |
| 1777801299 | 1.11° C | 72% | - | 0 mm | - | - | - |
| 1777800995 | 0.56° C | 74% | - | 0 mm | - | - | - |
| 1777800692 | 0.56° C | 74% | - | 0 mm | - | - | - |
| 1777800388 | 0.56° C | 75% | - | 0 mm | - | - | - |
| 1777800085 | 0.56° C | 73% | - | 0 mm | - | - | - |
| 1777799780 | 1.11° C | 72% | - | 0 mm | - | - | - |
| 1777799478 | 1.11° C | 69% | - | 0 mm | - | - | - |
| 1777799173 | 1.67° C | 68% | - | 0 mm | - | - | - |
| 1777798869 | 2.22° C | 67% | - | 0 mm | - | - | - |
| 1777798565 | 2.22° C | 66% | - | 0 mm | - | - | - |
| 1777798262 | 2.78° C | 66% | - | 0 mm | - | - | - |
| 1777797958 | 3.33° C | 62% | - | 0 mm | - | - | - |
| 1777797656 | 3.89° C | 62% | - | 0 mm | - | - | - |
| 1777797354 | 5° C | 52% | - | 0 mm | - | - | - |
* Rain latest hour (hover to see other rain measurements)
** Current wind speed in m/s (hover to see current wind gust speed)